createdAt,value
2023-05-14T00:02:02.528Z,97396.13
2023-05-14T00:04:30.163Z,97389.59
2023-05-14T00:06:57.709Z,97401.25
2023-05-14T00:09:25.275Z,97397.81
2023-05-14T00:11:53.069Z,97397.78
2023-05-14T00:14:20.587Z,97397.78
2023-05-14T00:16:48.128Z,97396.94
2023-05-14T00:19:15.872Z,97394.16
2023-05-14T00:21:43.409Z,97397.66
2023-05-14T00:24:11.012Z,97394.28
2023-05-14T00:26:38.489Z,97401.16
2023-05-14T00:29:06.482Z,97411.06
2023-05-14T00:31:33.916Z,97404.44
2023-05-14T00:34:01.708Z,97410.75
2023-05-14T00:36:29.288Z,97407.34
2023-05-14T00:38:56.836Z,97408.56
2023-05-14T00:41:24.466Z,97397.66
2023-05-14T00:43:52.063Z,97408.91
2023-05-14T00:46:19.675Z,97419.28
2023-05-14T00:48:47.513Z,97419.69
2023-05-14T00:51:15.059Z,97418.59
2023-05-14T00:53:42.860Z,97421.28
2023-05-14T00:56:11.065Z,97427.50
2023-05-14T00:58:38.683Z,97422.59
2023-05-14T01:01:06.323Z,97400.78
2023-05-14T01:03:34.941Z,97431.44
2023-05-14T01:06:22.101Z,97429.66
2023-05-14T01:09:27.035Z,97439.53
2023-05-14T01:12:16.644Z,97425.09
2023-05-14T01:15:11.356Z,97440.81
2023-05-14T01:17:58.909Z,97451.47
2023-05-14T01:20:27.379Z,97449.56
2023-05-14T01:22:54.848Z,97436.59
2023-05-14T01:25:22.345Z,97440.69
2023-05-14T01:27:55.977Z,97444.09
2023-05-14T01:30:40.660Z,97450.81
2023-05-14T01:33:13.298Z,97450.03
2023-05-14T01:35:42.454Z,97438.63
2023-05-14T01:38:12.086Z,97452.63
2023-05-14T01:40:40.494Z,97450.38
2023-05-14T01:43:09.001Z,97451.81
2023-05-14T01:45:37.149Z,97455.75
2023-05-14T01:48:06.054Z,97457.34
2023-05-14T01:50:33.688Z,97467.09
2023-05-14T01:53:01.323Z,97470.69
2023-05-14T01:55:28.891Z,97467.34
2023-05-14T01:57:56.581Z,97470.94
2023-05-14T02:00:27.942Z,97484.19
2023-05-14T02:02:55.474Z,97482.38
2023-05-14T02:05:23.973Z,97489.03
2023-05-14T02:07:51.649Z,97493.34
2023-05-14T02:10:19.233Z,97489.25
2023-05-14T02:12:50.328Z,97497.47
2023-05-14T02:15:17.872Z,97487.94
2023-05-14T02:17:45.471Z,97493.06
2023-05-14T02:20:13.363Z,97490.44
2023-05-14T02:22:45.935Z,97492.06
2023-05-14T02:25:13.403Z,97499.47
2023-05-14T02:27:40.877Z,97501.50
2023-05-14T02:30:09.747Z,97509.66
2023-05-14T02:32:38.003Z,97512.06
2023-05-14T02:35:05.978Z,97511.31
2023-05-14T02:37:35.044Z,97510.97
2023-05-14T02:40:02.521Z,97513.72
2023-05-14T02:42:31.062Z,97510.69
2023-05-14T02:44:58.655Z,97508.38
2023-05-14T02:47:27.311Z,97508.03
2023-05-14T02:49:54.940Z,97505.31
2023-05-14T02:52:22.452Z,97507.97
2023-05-14T02:54:49.893Z,97520.25
2023-05-14T02:57:17.419Z,97524.38
2023-05-14T02:59:44.905Z,97514.38
2023-05-14T03:02:12.995Z,97527.91
2023-05-14T03:04:41.066Z,97522.56
2023-05-14T03:07:08.601Z,97528.31
2023-05-14T03:09:38.126Z,97526.63
2023-05-14T03:12:07.027Z,97538.53
2023-05-14T03:14:34.580Z,97527.41
2023-05-14T03:17:02.422Z,97537.03
2023-05-14T03:19:30.029Z,97536.88
2023-05-14T03:21:57.571Z,97544.41
2023-05-14T03:24:25.022Z,97548.72
2023-05-14T03:26:52.525Z,97547.31
2023-05-14T03:29:20.018Z,97539.56
2023-05-14T03:31:47.535Z,97542.63
2023-05-14T03:34:15.408Z,97542.22
2023-05-14T03:36:43.074Z,97557.84
2023-05-14T03:39:10.499Z,97553.69
2023-05-14T03:41:39.579Z,97547.03
2023-05-14T03:44:07.154Z,97554.06
2023-05-14T03:46:34.861Z,97564.69
2023-05-14T03:49:02.851Z,97559.66
2023-05-14T03:51:30.446Z,97567.09
2023-05-14T03:53:58.668Z,97572.50
2023-05-14T03:56:26.507Z,97574.44
2023-05-14T03:58:54.078Z,97570.41
2023-05-14T04:01:21.504Z,97576.88
2023-05-14T04:03:49.157Z,97570.25
2023-05-14T04:06:16.747Z,97578.66
2023-05-14T04:08:44.341Z,97574.63
2023-05-14T04:11:12.247Z,97570.91
2023-05-14T04:13:39.788Z,97580.72
2023-05-14T04:16:07.732Z,97585.59
2023-05-14T04:18:36.098Z,97584.25
2023-05-14T04:21:03.690Z,97597.88
2023-05-14T04:23:32.138Z,97596.31
2023-05-14T04:25:59.782Z,97599.00
2023-05-14T04:28:27.265Z,97607.63
2023-05-14T04:30:54.699Z,97602.88
2023-05-14T04:33:22.199Z,97607.97
2023-05-14T04:35:49.675Z,97610.53
2023-05-14T04:38:17.394Z,97627.19
2023-05-14T04:40:44.856Z,97613.66
2023-05-14T04:43:12.432Z,97618.16
2023-05-14T04:45:41.352Z,97619.03
2023-05-14T04:48:09.258Z,97610.81
2023-05-14T04:50:36.715Z,97626.09
2023-05-14T04:53:04.282Z,97626.56
2023-05-14T04:55:32.012Z,97625.78
2023-05-14T04:57:59.442Z,97629.44
2023-05-14T05:00:27.375Z,97632.69
2023-05-14T05:02:55.086Z,97631.91
2023-05-14T05:05:22.861Z,97633.91
2023-05-14T05:07:50.335Z,97627.63
2023-05-14T05:10:17.865Z,97637.94
2023-05-14T05:12:46.158Z,97635.66
2023-05-14T05:15:13.669Z,97639.28
2023-05-14T05:17:42.165Z,97635.06
2023-05-14T05:20:10.446Z,97645.38
2023-05-14T05:22:38.254Z,97646.97
2023-05-14T05:25:06.594Z,97642.59
2023-05-14T05:27:34.406Z,97652.06
2023-05-14T05:30:02.490Z,97652.22
2023-05-14T05:32:31.725Z,97659.47
2023-05-14T05:34:59.305Z,97658.88
2023-05-14T05:37:26.800Z,97662.56
2023-05-14T05:39:55.588Z,97670.63
2023-05-14T05:42:23.036Z,97660.56
2023-05-14T05:44:50.477Z,97666.59
2023-05-14T05:47:18.093Z,97666.72
2023-05-14T05:49:45.605Z,97666.81
2023-05-14T05:52:13.314Z,97667.59
2023-05-14T05:54:40.817Z,97663.22
2023-05-14T05:57:08.341Z,97666.66
2023-05-14T05:59:36.465Z,97671.16
2023-05-14T06:02:04.122Z,97668.50
2023-05-14T06:04:31.591Z,97676.72
2023-05-14T06:06:59.065Z,97676.81
2023-05-14T06:09:26.689Z,97674.16
2023-05-14T06:11:54.428Z,97662.00
2023-05-14T06:14:22.142Z,97670.78
2023-05-14T06:16:49.694Z,97677.72
2023-05-14T06:19:17.303Z,97679.00
2023-05-14T06:21:44.923Z,97683.25
2023-05-14T06:24:13.582Z,97689.31
2023-05-14T06:26:41.184Z,97701.22
2023-05-14T06:29:08.722Z,97696.22
2023-05-14T06:31:36.158Z,97694.47
2023-05-14T06:34:03.998Z,97702.31
2023-05-14T06:36:31.445Z,97700.16
2023-05-14T06:38:58.964Z,97699.75
2023-05-14T06:41:26.519Z,97698.28
2023-05-14T06:43:54.030Z,97690.28
2023-05-14T06:46:22.002Z,97705.06
2023-05-14T06:48:49.588Z,97706.94
2023-05-14T06:51:17.165Z,97701.69
2023-05-14T06:53:44.657Z,97699.66
2023-05-14T06:56:13.258Z,97710.63
2023-05-14T06:58:40.940Z,97715.66
2023-05-14T07:01:08.441Z,97709.38
2023-05-14T07:03:36.242Z,97716.88
2023-05-14T07:06:04.024Z,97720.00
2023-05-14T07:08:31.513Z,97722.81
2023-05-14T07:10:59.137Z,97721.28
2023-05-14T07:13:28.888Z,97718.88
2023-05-14T07:15:56.548Z,97717.41
2023-05-14T07:18:24.413Z,97725.41
2023-05-14T07:20:51.859Z,97720.63
2023-05-14T07:23:20.034Z,97730.00
2023-05-14T07:25:47.678Z,97718.66
2023-05-14T07:28:15.208Z,97729.72
2023-05-14T07:30:42.611Z,97730.19
2023-05-14T07:33:10.272Z,97731.53
2023-05-14T07:35:37.789Z,97737.25
2023-05-14T07:38:06.171Z,97739.69
2023-05-14T07:40:33.649Z,97748.13
2023-05-14T07:43:01.203Z,97740.00
2023-05-14T07:45:28.696Z,97751.06
2023-05-14T07:47:56.550Z,97754.41
2023-05-14T07:50:24.555Z,97749.66
2023-05-14T07:52:52.149Z,97750.41
2023-05-14T07:55:19.712Z,97746.13
2023-05-14T07:57:47.343Z,97752.56
2023-05-14T08:00:16.272Z,97750.53
2023-05-14T08:02:45.163Z,97758.75
2023-05-14T08:05:13.019Z,97760.59
2023-05-14T08:07:40.699Z,97763.00
2023-05-14T08:10:08.865Z,97772.81
2023-05-14T08:12:36.556Z,97769.13
2023-05-14T08:15:04.395Z,97772.91
2023-05-14T08:17:32.396Z,97767.84
2023-05-14T08:19:59.884Z,97771.66
2023-05-14T08:22:27.362Z,97767.97
2023-05-14T08:24:54.772Z,97765.78
2023-05-14T08:27:23.280Z,97763.56
2023-05-14T08:29:51.714Z,97769.63
2023-05-14T08:32:23.448Z,97774.66
2023-05-14T08:34:52.157Z,97786.06
2023-05-14T08:37:19.824Z,97784.59
2023-05-14T08:39:47.406Z,97789.72
2023-05-14T08:42:21.086Z,97793.81
2023-05-14T08:44:50.426Z,97790.78
2023-05-14T08:47:21.129Z,97791.47
2023-05-14T08:49:59.155Z,97792.91
2023-05-14T08:52:26.893Z,97790.75
2023-05-14T08:54:55.998Z,97782.97
2023-05-14T08:57:26.838Z,97781.31
2023-05-14T08:59:54.592Z,97785.75
2023-05-14T09:02:25.658Z,97789.69
2023-05-14T09:04:56.976Z,97783.31
2023-05-14T09:07:25.065Z,97785.84
2023-05-14T09:09:53.739Z,97787.41
2023-05-14T09:12:21.891Z,97788.06
2023-05-14T09:14:50.681Z,97781.97
2023-05-14T09:17:19.162Z,97779.88
2023-05-14T09:19:49.411Z,97784.19
2023-05-14T09:22:18.420Z,97780.22
2023-05-14T09:24:46.606Z,97777.56
2023-05-14T09:27:22.766Z,97786.25
2023-05-14T09:29:50.200Z,97778.69
2023-05-14T09:32:18.416Z,97771.19
2023-05-14T09:34:45.926Z,97779.53
2023-05-14T09:37:13.495Z,97766.84
2023-05-14T09:39:41.076Z,97770.56
2023-05-14T09:42:08.649Z,97780.03
2023-05-14T09:44:38.312Z,97772.16
2023-05-14T09:47:06.513Z,97784.13
2023-05-14T09:49:34.587Z,97781.47
2023-05-14T09:52:03.865Z,97778.00
2023-05-14T09:54:33.407Z,97778.63
2023-05-14T09:57:01.132Z,97775.56
2023-05-14T09:59:28.671Z,97770.94
2023-05-14T10:01:57.743Z,97770.81
2023-05-14T10:04:25.854Z,97768.72
2023-05-14T10:06:54.617Z,97776.81
2023-05-14T10:09:26.579Z,97761.28
2023-05-14T10:11:58.200Z,97768.50
2023-05-14T10:14:33.090Z,97774.06
2023-05-14T10:17:02.245Z,97781.00
2023-05-14T10:19:34.633Z,97774.44
2023-05-14T10:22:08.226Z,97775.88
2023-05-14T10:24:39.112Z,97772.94
2023-05-14T10:27:07.119Z,97776.13
2023-05-14T10:29:36.256Z,97778.22
2023-05-14T10:32:08.633Z,97774.69
2023-05-14T10:34:41.864Z,97777.31
2023-05-14T10:37:14.612Z,97774.38
2023-05-14T10:39:54.218Z,97785.91
2023-05-14T10:42:22.884Z,97784.78
2023-05-14T10:44:59.026Z,97789.91
2023-05-14T10:47:27.889Z,97788.66
2023-05-14T10:49:58.461Z,97795.28
2023-05-14T10:52:26.812Z,97792.22
2023-05-14T10:54:56.666Z,97791.31
2023-05-14T10:57:27.890Z,97790.75
2023-05-14T10:59:58.018Z,97797.41
2023-05-14T11:02:27.649Z,97790.16
2023-05-14T11:05:04.225Z,97786.69
2023-05-14T11:07:38.206Z,97786.81
2023-05-14T11:10:07.743Z,97787.88
2023-05-14T11:12:37.378Z,97796.88
2023-05-14T11:15:07.860Z,97790.66
2023-05-14T11:17:36.757Z,97780.50
2023-05-14T11:20:08.337Z,97791.06
2023-05-14T11:22:37.638Z,97798.22
2023-05-14T11:25:06.655Z,97801.53
2023-05-14T11:27:36.302Z,97798.28
2023-05-14T11:30:04.334Z,97808.00
2023-05-14T11:32:33.740Z,97790.25
2023-05-14T11:35:01.465Z,97800.63
2023-05-14T11:37:30.927Z,97796.00
2023-05-14T11:40:01.282Z,97814.25
2023-05-14T11:42:31.379Z,97807.25
2023-05-14T11:44:59.942Z,97809.34
2023-05-14T11:47:31.937Z,97806.69
2023-05-14T11:50:00.406Z,97816.19
2023-05-14T11:52:28.000Z,97813.53
2023-05-14T11:54:55.614Z,97819.94
2023-05-14T11:57:23.596Z,97818.38
2023-05-14T11:59:59.254Z,97813.31
2023-05-14T12:02:30.784Z,97815.97
2023-05-14T12:04:58.437Z,97808.03
2023-05-14T12:07:30.752Z,97819.47
2023-05-14T12:10:02.225Z,97815.59
2023-05-14T12:12:36.202Z,97814.28
2023-05-14T12:15:11.781Z,97813.72
2023-05-14T12:17:40.124Z,97811.66
2023-05-14T12:20:12.628Z,97807.91
2023-05-14T12:22:42.945Z,97820.31
2023-05-14T12:25:14.371Z,97818.16
2023-05-14T12:27:46.493Z,97822.00
2023-05-14T12:32:46.192Z,97813.53
2023-05-14T12:35:13.712Z,97815.53
2023-05-14T12:37:42.175Z,97813.97
2023-05-14T12:40:10.376Z,97818.06
2023-05-14T12:42:38.124Z,97823.13
2023-05-14T12:45:08.276Z,97826.31
2023-05-14T12:47:37.501Z,97824.78
2023-05-14T12:50:06.333Z,97839.94
2023-05-14T12:52:38.501Z,97831.94
2023-05-14T12:55:07.776Z,97835.56
2023-05-14T12:57:35.839Z,97817.75
2023-05-14T13:00:08.268Z,97830.00
2023-05-14T13:02:42.685Z,97835.63
2023-05-14T13:05:12.189Z,97838.91
2023-05-14T13:07:39.866Z,97831.09
2023-05-14T13:10:07.837Z,97831.63
2023-05-14T13:12:35.328Z,97837.75
2023-05-14T13:15:02.840Z,97838.47
2023-05-14T13:17:32.770Z,97838.59
2023-05-14T13:20:00.268Z,97835.69
2023-05-14T13:22:27.863Z,97834.59
2023-05-14T13:24:55.251Z,97839.28
2023-05-14T13:27:22.726Z,97841.38
2023-05-14T13:29:50.147Z,97844.75
2023-05-14T13:32:17.632Z,97853.75
2023-05-14T13:34:45.160Z,97846.66
2023-05-14T13:37:12.688Z,97854.19
2023-05-14T13:39:41.171Z,97853.94
2023-05-14T13:42:08.821Z,97856.88
2023-05-14T13:44:36.578Z,97860.22
2023-05-14T13:47:04.596Z,97865.38
2023-05-14T13:49:32.108Z,97864.00
2023-05-14T13:51:59.625Z,97865.78
2023-05-14T13:54:27.213Z,97870.22
2023-05-14T13:56:54.745Z,97873.06
2023-05-14T13:59:22.366Z,97873.63
2023-05-14T14:01:51.030Z,97874.84
2023-05-14T14:04:20.155Z,97877.00
2023-05-14T14:06:47.609Z,97880.44
2023-05-14T14:09:15.112Z,97890.72
2023-05-14T14:11:42.819Z,97879.59
2023-05-14T14:14:10.285Z,97882.78
2023-05-14T14:16:37.926Z,97882.59
2023-05-14T14:19:08.008Z,97884.84
2023-05-14T14:21:38.273Z,97895.34
2023-05-14T14:24:06.600Z,97895.88
2023-05-14T14:26:34.132Z,97890.50
2023-05-14T14:29:01.902Z,97889.88
2023-05-14T14:31:29.476Z,97900.47
2023-05-14T14:33:57.038Z,97893.59
2023-05-14T14:36:24.652Z,97904.06
2023-05-14T14:38:52.143Z,97906.06
2023-05-14T14:41:19.727Z,97900.25
2023-05-14T14:43:47.235Z,97910.94
2023-05-14T14:46:14.821Z,97915.25
2023-05-14T14:48:42.441Z,97907.53
2023-05-14T14:51:10.171Z,97918.19
2023-05-14T14:53:37.719Z,97911.91
2023-05-14T14:56:05.675Z,97917.09
2023-05-14T14:58:33.342Z,97911.75
2023-05-14T15:01:01.637Z,97915.72
2023-05-14T15:03:29.598Z,97913.09
2023-05-14T15:05:57.362Z,97922.91
2023-05-14T15:08:29.000Z,97925.47
2023-05-14T15:10:57.073Z,97929.22
2023-05-14T15:13:24.969Z,97925.56
2023-05-14T15:15:52.972Z,97931.16
2023-05-14T15:18:20.864Z,97934.22
2023-05-14T15:20:48.708Z,97937.91
2023-05-14T15:23:16.348Z,97939.25
2023-05-14T15:25:43.893Z,97950.53
2023-05-14T15:28:11.640Z,97947.06
2023-05-14T15:30:39.128Z,97952.59
2023-05-14T15:33:08.919Z,97960.41
2023-05-14T15:35:36.905Z,97946.03
2023-05-14T15:38:04.562Z,97949.16
2023-05-14T15:40:33.543Z,97961.25
2023-05-14T15:43:01.139Z,97951.56
2023-05-14T15:45:28.771Z,97962.50
2023-05-14T15:47:56.265Z,97972.69
2023-05-14T15:50:24.014Z,97969.22
2023-05-14T15:52:51.544Z,97977.03
2023-05-14T15:55:19.094Z,97968.50
2023-05-14T15:57:47.540Z,97980.97
2023-05-14T16:00:15.437Z,97989.22
2023-05-14T16:02:43.069Z,97984.53
2023-05-14T16:05:10.712Z,97984.22
2023-05-14T16:07:38.941Z,97983.50
2023-05-14T16:10:07.335Z,97996.75
2023-05-14T16:12:34.996Z,97994.50
2023-05-14T16:15:02.520Z,97999.22
2023-05-14T16:17:33.105Z,97999.28
2023-05-14T16:20:01.557Z,98002.41
2023-05-14T16:22:32.233Z,97996.25
2023-05-14T16:25:01.830Z,98002.06
2023-05-14T16:27:31.903Z,97998.22
2023-05-14T16:29:59.498Z,98001.72
2023-05-14T16:32:27.982Z,98005.69
2023-05-14T16:34:56.733Z,98004.13
2023-05-14T16:37:24.249Z,98005.34
2023-05-14T16:39:51.735Z,98006.13
2023-05-14T16:42:19.270Z,98005.03
2023-05-14T16:44:46.794Z,97996.50
2023-05-14T16:47:14.419Z,97996.09
2023-05-14T16:49:41.933Z,98005.50
2023-05-14T16:52:09.461Z,97999.28
2023-05-14T16:54:37.280Z,98001.69
2023-05-14T16:57:05.376Z,98006.34
2023-05-14T16:59:32.857Z,98003.28
2023-05-14T17:02:00.624Z,98015.34
2023-05-14T17:04:28.328Z,98010.72
2023-05-14T17:06:57.623Z,98007.97
2023-05-14T17:09:25.328Z,98011.91
2023-05-14T17:11:52.911Z,98020.91
2023-05-14T17:14:20.404Z,98018.19
2023-05-14T17:16:47.923Z,98018.19
2023-05-14T17:19:15.819Z,98010.81
2023-05-14T17:21:43.327Z,98025.63
2023-05-14T17:24:10.787Z,98024.09
2023-05-14T17:26:38.379Z,98025.66
2023-05-14T17:29:06.136Z,98018.28
2023-05-14T17:31:33.749Z,98028.03
2023-05-14T17:34:01.383Z,98035.47
2023-05-14T17:36:28.889Z,98028.13
2023-05-14T17:38:56.423Z,98034.34
2023-05-14T17:41:23.884Z,98040.19
2023-05-14T17:43:52.823Z,98044.13
2023-05-14T17:46:21.797Z,98048.47
2023-05-14T17:48:49.293Z,98052.75
2023-05-14T17:51:16.703Z,98056.63
2023-05-14T17:53:44.329Z,98055.47
2023-05-14T17:56:11.854Z,98044.63
2023-05-14T17:58:39.319Z,98052.78
2023-05-14T18:01:08.276Z,98052.00
2023-05-14T18:03:35.921Z,98055.88
2023-05-14T18:06:03.568Z,98054.75
2023-05-14T18:08:31.109Z,98049.31
2023-05-14T18:11:01.047Z,98057.91
2023-05-14T18:13:28.568Z,98052.50
2023-05-14T18:15:56.873Z,98048.63
2023-05-14T18:18:24.609Z,98059.56
2023-05-14T18:20:52.852Z,98056.03
2023-05-14T18:23:20.343Z,98052.53
2023-05-14T18:25:48.514Z,98063.84
2023-05-14T18:28:16.186Z,98059.56
2023-05-14T18:30:43.854Z,98059.19
2023-05-14T18:33:11.524Z,98061.13
2023-05-14T18:35:39.117Z,98065.03
2023-05-14T18:38:08.296Z,98066.59
2023-05-14T18:40:35.730Z,98063.09
2023-05-14T18:43:03.273Z,98072.41
2023-05-14T18:45:30.919Z,98066.56
2023-05-14T18:47:58.370Z,98066.59
2023-05-14T18:50:25.977Z,98060.34
2023-05-14T18:52:53.485Z,98070.88
2023-05-14T18:55:21.055Z,98068.91
2023-05-14T18:57:48.665Z,98071.63
2023-05-14T19:00:16.447Z,98073.59
2023-05-14T19:02:44.237Z,98071.25
2023-05-14T19:05:11.714Z,98060.34
2023-05-14T19:07:39.395Z,98071.25
2023-05-14T19:10:07.934Z,98061.94
2023-05-14T19:12:35.438Z,98073.59
2023-05-14T19:15:03.181Z,98077.09
2023-05-14T19:17:33.016Z,98068.56
2023-05-14T19:20:00.549Z,98073.59
2023-05-14T19:22:28.185Z,98081.41
2023-05-14T19:24:55.786Z,98079.03
2023-05-14T19:27:24.839Z,98072.03
2023-05-14T19:29:52.321Z,98075.94
2023-05-14T19:32:19.858Z,98081.75
2023-05-14T19:34:48.065Z,98070.50
2023-05-14T19:37:16.501Z,98072.44
2023-05-14T19:39:44.052Z,98074.75
2023-05-14T19:42:11.649Z,98074.00
2023-05-14T19:44:39.371Z,98071.28
2023-05-14T19:47:07.785Z,98076.31
2023-05-14T19:49:35.279Z,98081.38
2023-05-14T19:52:02.863Z,98076.72
2023-05-14T19:54:30.344Z,98078.28
2023-05-14T19:56:57.809Z,98078.28
2023-05-14T19:59:25.642Z,98081.78
2023-05-14T20:01:54.783Z,98081.41
2023-05-14T20:04:22.330Z,98087.59
2023-05-14T20:06:50.052Z,98081.00
2023-05-14T20:09:17.535Z,98084.88
2023-05-14T20:11:45.111Z,98085.25
2023-05-14T20:14:12.742Z,98092.63
2023-05-14T20:16:40.357Z,98096.50
2023-05-14T20:19:08.396Z,98107.78
2023-05-14T20:21:36.009Z,98102.34
2023-05-14T20:24:03.747Z,98093.00
2023-05-14T20:26:31.411Z,98100.78
2023-05-14T20:28:58.846Z,98107.38
2023-05-14T20:31:26.455Z,98096.09
2023-05-14T20:33:54.157Z,98100.75
2023-05-14T20:36:22.575Z,98111.63
2023-05-14T20:38:50.590Z,98113.16
2023-05-14T20:41:18.084Z,98112.03
2023-05-14T20:43:45.772Z,98114.34
2023-05-14T20:46:13.471Z,98116.66
2023-05-14T20:48:41.003Z,98118.63
2023-05-14T20:51:08.603Z,98096.84
2023-05-14T20:53:39.538Z,98115.50
2023-05-14T20:56:07.292Z,98120.13
2023-05-14T20:58:35.851Z,98132.19
2023-05-14T21:01:04.878Z,98113.53
2023-05-14T21:03:32.632Z,98127.13
2023-05-14T21:06:00.971Z,98124.81
2023-05-14T21:08:28.438Z,98120.91
2023-05-14T21:10:56.371Z,98118.97
2023-05-14T21:13:23.920Z,98122.06
2023-05-14T21:15:51.616Z,98117.41
2023-05-14T21:18:19.129Z,98116.66
2023-05-14T21:20:46.592Z,98117.41
2023-05-14T21:23:15.012Z,98117.00
2023-05-14T21:25:42.658Z,98124.00
2023-05-14T21:28:10.260Z,98125.56
2023-05-14T21:30:37.733Z,98123.25
2023-05-14T21:33:05.361Z,98129.47
2023-05-14T21:35:33.135Z,98137.25
2023-05-14T21:38:00.819Z,98132.19
2023-05-14T21:40:28.349Z,98133.78
2023-05-14T21:42:55.808Z,98140.34
2023-05-14T21:45:23.838Z,98140.75
2023-05-14T21:47:51.571Z,98140.38
2023-05-14T21:50:19.219Z,98145.03
2023-05-14T21:52:46.964Z,98142.72
2023-05-14T21:55:14.422Z,98143.47
2023-05-14T21:57:41.881Z,98143.88
2023-05-14T22:00:12.945Z,98140.34
2023-05-14T22:02:42.540Z,98143.13
2023-05-14T22:05:10.202Z,98149.69
2023-05-14T22:07:37.728Z,98143.09
2023-05-14T22:10:05.497Z,98150.47
2023-05-14T22:12:33.055Z,98156.31
2023-05-14T22:15:00.500Z,98141.94
2023-05-14T22:17:30.891Z,98145.78
2023-05-14T22:19:58.367Z,98148.13
2023-05-14T22:22:25.893Z,98146.59
2023-05-14T22:24:53.329Z,98143.88
2023-05-14T22:27:20.850Z,98132.97
2023-05-14T22:29:48.456Z,98135.69
2023-05-14T22:32:16.039Z,98140.72
2023-05-14T22:34:43.535Z,98138.03
2023-05-14T22:37:10.986Z,98137.25
2023-05-14T22:39:38.638Z,98142.28
2023-05-14T22:42:06.593Z,98145.38
2023-05-14T22:44:34.118Z,98142.63
2023-05-14T22:47:01.603Z,98141.88
2023-05-14T22:49:29.091Z,98146.16
2023-05-14T22:51:56.598Z,98141.06
2023-05-14T22:54:24.165Z,98149.59
2023-05-14T22:56:51.845Z,98155.00
2023-05-14T22:59:20.575Z,98145.69
2023-05-14T23:01:49.804Z,98162.66
2023-05-14T23:04:17.455Z,98154.09
2023-05-14T23:06:45.100Z,98150.53
2023-05-14T23:09:12.684Z,98143.16
2023-05-14T23:11:40.242Z,98152.47
2023-05-14T23:14:07.764Z,98138.09
2023-05-14T23:16:35.561Z,98139.59
2023-05-14T23:19:03.586Z,98147.34
2023-05-14T23:21:31.728Z,98135.66
2023-05-14T23:23:59.236Z,98131.00
2023-05-14T23:26:26.765Z,98132.88
2023-05-14T23:28:54.277Z,98125.06
2023-05-14T23:31:21.912Z,98121.97
2023-05-14T23:33:49.458Z,98120.03
2023-05-14T23:36:16.940Z,98125.41
2023-05-14T23:38:44.575Z,98131.22
2023-05-14T23:41:11.996Z,98128.09
2023-05-14T23:43:39.451Z,98124.16
2023-05-14T23:46:07.179Z,98128.03
2023-05-14T23:48:34.847Z,98120.59
2023-05-14T23:51:02.383Z,98124.88
2023-05-14T23:53:29.842Z,98123.31
2023-05-14T23:55:57.462Z,98122.50
2023-05-14T23:58:25.025Z,98118.22
